Time;durP1;ratioP1;P1;durP2;ratioP2;P2;SDS_P1;SDS_P2;PMS_P1;PMS_P2;Temp;Humidity;BMP_temperature;BMP_pressure;BME280_temperature;BME280_humidity;BME280_pressure;Samples;Min_cycle;Max_cycle;Signal;HPM_P1;HPM_P2
2022/09/29 00:00:33;;;;;;;11.50;8.35;;;;;;;6.88;100.00;99167.56;1750362;82;21574;-65
2022/09/29 00:03:00;;;;;;;10.70;8.00;;;;;;;6.90;100.00;99169.67;1750294;82;21049;-65
2022/09/29 00:05:27;;;;;;;14.25;8.30;;;;;;;6.83;100.00;99166.89;1750851;82;21132;-65
2022/09/29 00:07:54;;;;;;;17.48;9.40;;;;;;;6.81;100.00;99168.70;1750366;82;21040;-66
2022/09/29 00:10:22;;;;;;;14.53;8.55;;;;;;;6.77;100.00;99164.95;1748233;82;21649;-65
2022/09/29 00:12:50;;;;;;;13.83;8.60;;;;;;;6.74;100.00;99160.69;1750388;82;21117;-66
2022/09/29 00:15:17;;;;;;;14.47;8.00;;;;;;;6.66;100.00;99154.41;1750385;82;21275;-65
2022/09/29 00:17:44;;;;;;;14.50;8.53;;;;;;;6.67;100.00;99160.48;1750265;82;21736;-67
2022/09/29 00:20:11;;;;;;;12.85;8.35;;;;;;;6.65;100.00;99162.33;1750168;82;21291;-67
2022/09/29 00:22:37;;;;;;;14.47;8.10;;;;;;;6.63;100.00;99158.92;1750817;82;21593;-66
2022/09/29 00:25:05;;;;;;;13.25;9.00;;;;;;;6.61;100.00;99165.97;1750149;82;21129;-65
2022/09/29 00:27:32;;;;;;;15.63;8.60;;;;;;;6.59;100.00;99173.02;1750626;81;21576;-65
2022/09/29 00:29:59;;;;;;;14.15;8.28;;;;;;;6.59;100.00;99169.09;1750307;82;22495;-65
2022/09/29 00:32:25;;;;;;;13.85;8.28;;;;;;;6.52;100.00;99168.45;1750438;82;21021;-65
2022/09/29 00:34:52;;;;;;;10.80;7.85;;;;;;;6.52;100.00;99177.61;1750184;82;21081;-66
2022/09/29 00:37:18;;;;;;;14.15;7.90;;;;;;;6.50;100.00;99182.88;1750257;82;21057;-66
2022/09/29 00:39:45;;;;;;;14.35;7.90;;;;;;;6.47;100.00;99186.08;1750395;82;21018;-65
2022/09/29 00:42:12;;;;;;;13.70;8.00;;;;;;;6.50;100.00;99192.03;1750207;82;21207;-65
2022/09/29 00:45:01;;;;;;;20.85;8.53;;;;;;;6.48;100.00;99193.84;1751859;81;21552;-65
2022/09/29 00:47:28;;;;;;;24.07;8.60;;;;;;;6.43;100.00;99191.86;1752984;81;21068;-65
2022/09/29 00:50:15;;;;;;;14.43;9.00;;;;;;;6.39;100.00;99192.86;1753313;81;21018;-67
2022/09/29 00:52:51;;;;;;;13.72;8.48;;;;;;;6.37;100.00;99199.91;1752653;81;21056;-66
2022/09/29 00:55:28;;;;;;;13.72;8.05;;;;;;;6.37;100.00;99202.52;1753622;81;21108;-65
2022/09/29 00:58:09;;;;;;;13.90;8.28;;;;;;;6.37;100.00;99203.83;1753227;81;21038;-65
2022/09/29 01:00:37;;;;;;;14.00;8.35;;;;;;;6.32;100.00;99199.22;1753332;81;21014;-65
2022/09/29 01:03:11;;;;;;;13.60;8.78;;;;;;;6.29;100.00;99204.56;1753127;81;21049;-66
2022/09/29 01:05:43;;;;;;;13.45;7.95;;;;;;;6.28;100.00;99206.76;1753193;81;21002;-67
2022/09/29 01:08:17;;;;;;;13.20;7.92;;;;;;;6.28;100.00;99206.33;1753204;81;21528;-65
2022/09/29 01:10:44;;;;;;;16.25;8.58;;;;;;;6.23;100.00;99208.69;1753075;81;21097;-67
2022/09/29 01:13:12;;;;;;;14.78;8.53;;;;;;;6.25;100.00;99210.80;1753115;81;21037;-65
2022/09/29 01:15:38;;;;;;;17.77;8.55;;;;;;;6.26;100.00;99212.52;1753200;81;21576;-65
2022/09/29 01:18:05;;;;;;;17.52;8.93;;;;;;;6.26;100.00;99211.22;1753002;81;20978;-66
2022/09/29 01:20:34;;;;;;;24.77;8.03;;;;;;;6.22;100.00;99220.06;1753032;81;21252;-68
2022/09/29 01:23:43;;;;;;;13.50;7.53;;;;;;;6.14;100.00;99225.98;1753076;81;20980;-65
2022/09/29 01:26:18;;;;;;;15.50;7.85;;;;;;;6.13;100.00;99225.59;1753179;81;21048;-66
2022/09/29 01:29:12;;;;;;;15.00;7.72;;;;;;;6.07;100.00;99234.05;1715868;81;21178;-66
2022/09/29 01:32:12;;;;;;;19.20;10.10;;;;;;;6.05;100.00;99231.94;1753460;81;21538;-65
2022/09/29 01:35:20;;;;;;;13.83;9.58;;;;;;;5.94;100.00;99228.81;1753638;81;21329;-66
2022/09/29 01:38:01;;;;;;;14.50;9.50;;;;;;;5.84;100.00;99226.05;1753185;81;21022;-65
2022/09/29 01:40:57;;;;;;;;;;;;;;;5.78;100.00;99227.57;1755912;81;21057;-65
2022/09/29 01:43:34;;;;;;;13.60;9.25;;;;;;;5.75;100.00;99233.75;1752950;81;20194;-65
2022/09/29 01:46:17;;;;;;;13.43;8.28;;;;;;;5.75;100.00;99239.41;1750403;82;21045;-65
2022/09/29 01:48:48;;;;;;;15.55;8.50;;;;;;;5.73;100.00;99239.90;1750452;82;21488;-65
2022/09/29 01:51:20;;;;;;;10.58;7.90;;;;;;;5.73;100.00;99245.13;1750322;82;21656;-65
2022/09/29 01:53:49;;;;;;;11.93;7.72;;;;;;;5.70;100.00;99246.08;1750612;82;21049;-67
2022/09/29 01:56:35;;;;;;;15.13;7.72;;;;;;;5.65;100.00;99245.38;1750080;82;21174;-65
2022/09/29 01:59:07;;;;;;;14.15;8.55;;;;;;;5.68;100.00;99244.84;1750259;82;21053;-65
2022/09/29 02:01:37;;;;;;;11.22;8.35;;;;;;;5.71;100.00;99258.72;1749902;82;21594;-66
2022/09/29 02:04:26;;;;;;;15.00;8.93;;;;;;;5.71;100.00;99265.25;1750372;82;21063;-65
2022/09/29 02:06:58;;;;;;;16.80;9.13;;;;;;;5.76;100.00;99263.34;1750311;82;21015;-65
2022/09/29 02:09:31;;;;;;;19.23;9.83;;;;;;;5.72;100.00;99268.25;1750716;82;21147;-65
2022/09/29 02:11:58;;;;;;;11.50;8.55;;;;;;;5.72;100.00;99266.94;1750282;82;21050;-65
2022/09/29 02:14:28;;;;;;;12.75;8.60;;;;;;;5.73;100.00;99267.33;1750306;82;21252;-66
2022/09/29 02:17:06;;;;;;;14.68;9.48;;;;;;;5.73;100.00;99269.94;1750318;82;21611;-65
2022/09/29 02:19:35;;;;;;;16.02;9.45;;;;;;;5.75;100.00;99265.11;1750446;81;21093;-65
2022/09/29 02:22:02;;;;;;;16.45;9.03;;;;;;;5.79;100.00;99259.31;1742563;82;21594;-66
2022/09/29 02:24:28;;;;;;;16.40;9.35;;;;;;;5.81;100.00;99262.28;1742566;82;21587;-65
2022/09/29 02:26:55;;;;;;;13.05;8.58;;;;;;;5.86;100.00;99262.13;1721228;82;21176;-65
2022/09/29 02:29:21;;;;;;;12.65;8.83;;;;;;;5.87;100.00;99259.48;1742306;81;21043;-65
2022/09/29 02:31:48;;;;;;;12.30;9.13;;;;;;;5.89;100.00;99264.21;1742671;82;21094;-65
2022/09/29 02:34:17;;;;;;;12.80;8.98;;;;;;;5.92;100.00;99264.56;1742778;82;21035;-65
2022/09/29 02:36:55;;;;;;;14.60;9.35;;;;;;;5.93;100.00;99268.87;1742689;82;21102;-66
2022/09/29 02:39:51;;;;;;;13.03;8.80;;;;;;;5.96;100.00;99264.91;1742639;82;21170;-66
2022/09/29 02:42:35;;;;;;;14.30;8.13;;;;;;;5.97;100.00;99263.14;1742219;82;21078;-64
2022/09/29 02:45:34;;;;;;;12.60;8.03;;;;;;;6.00;100.00;99264.34;1737055;82;21003;-66
2022/09/29 02:48:36;;;;;;;13.93;8.45;;;;;;;6.00;100.00;99270.41;1742388;82;21086;-65
2022/09/29 02:51:20;;;;;;;12.55;9.25;;;;;;;6.05;100.00;99277.68;1741805;82;21098;-66
2022/09/29 02:54:04;;;;;;;16.23;9.63;;;;;;;6.07;100.00;99275.88;1742604;82;21146;-65
2022/09/29 02:57:10;;;;;;;11.33;8.48;;;;;;;6.07;100.00;99274.56;1742381;82;21098;-66
2022/09/29 02:59:45;;;;;;;18.65;10.35;;;;;;;6.11;100.00;99273.16;1742597;82;21118;-66
2022/09/29 03:02:15;;;;;;;16.52;10.60;;;;;;;6.13;100.00;99274.80;1742933;82;21090;-66
2022/09/29 03:04:41;;;;;;;20.72;11.70;;;;;;;6.16;100.00;99279.08;1690133;82;21621;-65
2022/09/29 03:07:08;;;;;;;15.48;10.82;;;;;;;6.14;100.00;99275.66;1742751;82;21771;-65
2022/09/29 03:09:35;;;;;;;20.82;11.65;;;;;;;6.14;100.00;99275.66;1742485;82;20992;-66
2022/09/29 03:12:02;;;;;;;23.95;11.53;;;;;;;6.15;100.00;99277.38;1742546;82;21102;-67
2022/09/29 03:14:29;;;;;;;20.08;12.30;;;;;;;6.20;100.00;99276.77;1742347;82;21048;-66
2022/09/29 03:16:55;;;;;;;25.75;13.55;;;;;;;6.21;100.00;99281.08;1742342;82;21562;-66
2022/09/29 03:19:22;;;;;;;18.02;11.83;;;;;;;6.23;100.00;99280.58;1742325;82;21303;-65
2022/09/29 03:21:49;;;;;;;16.15;10.15;;;;;;;6.22;100.00;99285.42;1742259;81;21099;-66
2022/09/29 03:24:17;;;;;;;14.03;9.68;;;;;;;6.22;100.00;99286.73;1742316;82;21734;-65
2022/09/29 03:26:44;;;;;;;13.58;9.35;;;;;;;6.22;100.00;99286.73;1742318;82;21069;-66
2022/09/29 03:29:10;;;;;;;11.75;8.73;;;;;;;6.23;100.00;99288.43;1742524;81;21119;-65
2022/09/29 03:31:40;;;;;;;18.12;11.12;;;;;;;6.22;100.00;99290.66;1742711;82;21256;-66
2022/09/29 03:34:07;;;;;;;17.92;11.70;;;;;;;6.21;100.00;99288.50;1742477;82;21133;-67
2022/09/29 03:36:34;;;;;;;17.25;10.80;;;;;;;6.20;100.00;99285.92;1742500;82;22203;-66
2022/09/29 03:39:01;;;;;;;19.35;10.90;;;;;;;6.16;100.00;99283.84;1742387;82;21523;-66
2022/09/29 03:41:27;;;;;;;18.70;9.85;;;;;;;6.19;100.00;99288.12;1742688;82;21626;-66
2022/09/29 03:43:54;;;;;;;18.45;10.45;;;;;;;6.22;100.00;99284.12;1742521;82;21225;-66
2022/09/29 03:46:20;;;;;;;23.98;11.18;;;;;;;6.25;100.00;99286.63;1742849;82;21035;-65
2022/09/29 03:48:47;;;;;;;15.18;11.15;;;;;;;6.27;100.00;99279.58;1742710;82;21142;-65
2022/09/29 03:51:14;;;;;;;17.42;11.30;;;;;;;6.27;100.00;99292.66;1742670;82;21074;-66
2022/09/29 03:53:40;;;;;;;18.45;9.73;;;;;;;6.29;100.00;99298.70;1742570;82;21050;-68
2022/09/29 03:56:07;;;;;;;16.15;10.55;;;;;;;6.29;100.00;99309.16;1742422;82;21544;-65
2022/09/29 03:58:35;;;;;;;16.27;10.23;;;;;;;6.24;100.00;99311.08;1742609;82;21075;-67
2022/09/29 04:01:02;;;;;;;20.85;11.60;;;;;;;6.22;100.00;99315.49;1742464;82;21050;-66
2022/09/29 04:03:29;;;;;;;20.48;12.55;;;;;;;6.22;100.00;99322.03;1742558;82;21594;-66
2022/09/29 04:05:55;;;;;;;22.55;13.10;;;;;;;6.27;100.00;99325.34;1742423;82;21012;-66
2022/09/29 04:08:22;;;;;;;21.48;13.00;;;;;;;6.29;100.00;99320.92;1742593;82;21282;-65
2022/09/29 04:10:49;;;;;;;24.50;14.55;;;;;;;6.30;100.00;99321.31;1742650;82;21044;-66
2022/09/29 04:13:16;;;;;;;23.07;14.10;;;;;;;6.29;100.00;99326.16;1742647;82;21051;-65
2022/09/29 04:15:43;;;;;;;21.45;12.90;;;;;;;6.31;100.00;99332.19;1743004;82;21035;-66
2022/09/29 04:18:13;;;;;;;19.07;10.93;;;;;;;6.36;100.00;99331.58;1742862;82;21031;-66
2022/09/29 04:20:40;;;;;;;19.20;11.45;;;;;;;6.38;100.00;99337.63;1744881;81;22055;-66
2022/09/29 04:23:06;;;;;;;18.00;10.50;;;;;;;6.41;100.00;99338.82;1755931;81;21031;-66
2022/09/29 04:25:33;;;;;;;17.57;12.35;;;;;;;6.47;100.00;99341.70;1756001;81;21522;-67
2022/09/29 04:28:02;;;;;;;16.60;9.88;;;;;;;6.56;100.00;99340.09;1755779;81;21113;-66
2022/09/29 04:30:29;;;;;;;17.20;10.75;;;;;;;6.63;100.00;99344.67;1756072;81;21038;-66
2022/09/29 04:32:56;;;;;;;24.02;11.45;;;;;;;6.68;100.00;99348.83;1755951;81;21213;-65
2022/09/29 04:35:22;;;;;;;17.60;12.40;;;;;;;6.75;100.00;99349.48;1755933;81;21377;-66
2022/09/29 04:37:49;;;;;;;18.82;12.75;;;;;;;6.82;100.00;99347.05;1755845;81;21046;-67
2022/09/29 04:40:16;;;;;;;22.00;12.80;;;;;;;6.88;100.00;99353.40;1755704;81;21503;-65
2022/09/29 04:42:43;;;;;;;21.45;14.35;;;;;;;6.94;100.00;99346.63;1755816;81;21094;-66
2022/09/29 04:45:10;;;;;;;26.15;13.38;;;;;;;7.02;100.00;99349.45;1755878;81;21146;-66
2022/09/29 04:47:36;;;;;;;23.20;14.20;;;;;;;7.09;100.00;99345.70;1755841;81;21013;-65
2022/09/29 04:50:03;;;;;;;23.32;14.05;;;;;;;7.18;100.00;99345.38;1756123;81;21072;-66
2022/09/29 04:52:30;;;;;;;20.17;13.15;;;;;;;7.26;100.00;99343.33;1755840;81;21069;-66
2022/09/29 04:54:57;;;;;;;24.23;13.93;;;;;;;7.38;100.00;99347.72;1755898;81;21017;-65
2022/09/29 04:57:23;;;;;;;18.30;12.45;;;;;;;7.45;100.00;99350.52;1755864;81;21295;-66
2022/09/29 04:59:50;;;;;;;17.45;11.85;;;;;;;7.56;100.00;99350.98;1756197;81;21454;-66
2022/09/29 05:02:20;;;;;;;21.57;10.90;;;;;;;7.57;100.00;99348.77;1756070;81;21041;-66
2022/09/29 05:04:46;;;;;;;17.15;12.68;;;;;;;7.61;100.00;99342.95;1756073;81;22209;-66
2022/09/29 05:07:14;;;;;;;15.13;10.93;;;;;;;7.68;100.00;99342.64;1755638;81;21052;-67
2022/09/29 05:09:40;;;;;;;20.95;12.45;;;;;;;7.75;100.00;99335.41;1755928;81;21538;-66
2022/09/29 05:12:10;;;;;;;17.30;12.35;;;;;;;7.89;100.00;99344.94;1755756;81;21802;-66
2022/09/29 05:14:38;;;;;;;21.35;12.28;;;;;;;7.93;100.00;99337.78;1756085;81;21045;-66
2022/09/29 05:17:05;;;;;;;15.90;12.43;;;;;;;8.02;100.00;99338.73;1756222;81;21041;-66
2022/09/29 05:19:31;;;;;;;21.65;12.82;;;;;;;8.07;100.00;99330.23;1756052;81;21009;-67
2022/09/29 05:22:00;;;;;;;21.23;12.70;;;;;;;8.12;100.00;99330.05;1742309;81;21218;-66
2022/09/29 05:24:27;;;;;;;18.17;12.30;;;;;;;8.21;100.00;99338.86;1731575;82;21062;-66
2022/09/29 05:26:54;;;;;;;17.07;11.18;;;;;;;8.33;100.00;99341.48;1731801;82;21054;-67
2022/09/29 05:29:22;;;;;;;21.93;12.30;;;;;;;8.41;100.00;99343.34;1731891;82;21487;-67
2022/09/29 05:31:50;;;;;;;23.90;12.53;;;;;;;8.50;100.00;99348.22;1732147;82;21558;-66
2022/09/29 05:34:17;;;;;;;21.02;12.45;;;;;;;8.59;100.00;99341.74;1731884;82;21058;-66
2022/09/29 05:36:43;;;;;;;20.10;11.05;;;;;;;8.69;100.00;99343.52;1731793;82;21072;-66
2022/09/29 05:39:10;;;;;;;16.62;10.60;;;;;;;8.80;100.00;99345.23;1732171;82;21114;-68
2022/09/29 05:41:36;;;;;;;14.50;9.68;;;;;;;8.89;100.00;99363.23;1732004;82;21051;-66
2022/09/29 05:44:03;;;;;;;15.55;10.23;;;;;;;9.03;100.00;99355.61;1737441;82;21002;-65
2022/09/29 05:46:30;;;;;;;13.15;9.30;;;;;;;9.15;100.00;99363.41;1748173;82;21279;-67
2022/09/29 05:48:57;;;;;;;15.30;9.90;;;;;;;9.30;100.00;99364.53;1748214;82;21131;-66
2022/09/29 05:51:27;;;;;;;14.40;8.93;;;;;;;9.50;100.00;99371.98;1747969;82;21073;-66
2022/09/29 05:53:54;;;;;;;16.07;9.38;;;;;;;9.66;100.00;99375.63;1748589;82;21131;-66
2022/09/29 05:56:25;;;;;;;13.28;9.00;;;;;;;9.82;100.00;99372.71;1748074;82;21057;-66
2022/09/29 05:58:53;;;;;;;21.23;10.60;;;;;;;10.00;100.00;99380.66;1748000;82;21059;-67
2022/09/29 06:01:24;;;;;;;12.35;7.67;;;;;;;10.15;100.00;99376.00;1748019;82;21061;-66
2022/09/29 06:03:53;;;;;;;16.25;8.43;;;;;;;10.29;100.00;99374.91;1747699;82;21093;-67
2022/09/29 06:06:24;;;;;;;13.03;8.45;;;;;;;10.44;100.00;99368.51;1747903;82;21069;-67
2022/09/29 06:08:52;;;;;;;17.25;9.40;;;;;;;10.54;100.00;99371.57;1748212;82;22096;-66
2022/09/29 06:11:21;;;;;;;14.63;8.48;;;;;;;10.61;100.00;99371.19;1747757;82;22139;-65
2022/09/29 06:13:51;;;;;;;15.10;7.92;;;;;;;10.65;100.00;99369.23;1747974;82;21089;-66
2022/09/29 06:16:20;;;;;;;10.65;8.28;;;;;;;10.69;100.00;99372.95;1747939;82;21041;-67
2022/09/29 06:18:47;;;;;;;13.68;7.75;;;;;;;10.68;100.00;99380.95;1747939;82;21046;-68
2022/09/29 06:21:17;;;;;;;13.35;8.00;;;;;;;10.60;100.00;99374.73;1748388;81;21053;-66
2022/09/29 06:23:44;;;;;;;11.80;6.97;;;;;;;10.57;100.00;99377.52;1753704;81;22100;-67
2022/09/29 06:26:13;;;;;;;14.47;8.65;;;;;;;10.58;100.00;99377.93;1753506;81;21065;-66
2022/09/29 06:28:39;;;;;;;14.15;9.15;;;;;;;10.58;100.00;99379.24;1753706;81;21025;-67
2022/09/29 06:31:12;;;;;;;14.33;7.72;;;;;;;10.63;100.00;99377.70;1753481;81;21006;-67
2022/09/29 06:33:39;;;;;;;10.95;7.90;;;;;;;10.69;100.00;99383.96;1752410;81;21033;-67
2022/09/29 06:39:15;;;;;;;11.67;8.50;;;;;;;10.78;100.00;99383.98;1753476;81;21068;-66
2022/09/29 06:41:47;;;;;;;14.05;10.15;;;;;;;10.84;100.00;99386.31;1753259;81;21613;-66
2022/09/29 06:44:14;;;;;;;13.03;9.08;;;;;;;10.88;100.00;99394.42;1744701;81;21074;-66
2022/09/29 06:46:41;;;;;;;15.18;10.35;;;;;;;10.85;100.00;99394.59;1731525;82;21058;-67
2022/09/29 06:49:11;;;;;;;13.28;9.65;;;;;;;10.80;100.00;99396.61;1731319;82;21155;-67
2022/09/29 06:51:37;;;;;;;14.80;10.80;;;;;;;10.80;100.00;99392.66;1731405;82;21055;-68
2022/09/29 06:54:05;;;;;;;13.95;10.53;;;;;;;10.88;100.00;99404.97;1731638;82;21030;-67
2022/09/29 06:56:32;;;;;;;15.50;9.45;;;;;;;10.94;100.00;99409.94;1731568;82;21080;-67
2022/09/29 06:59:00;;;;;;;19.15;10.80;;;;;;;10.95;100.00;99409.02;1731717;82;21058;-66
2022/09/29 07:01:26;;;;;;;13.43;9.23;;;;;;;10.95;100.00;99414.30;1731728;82;21129;-66
2022/09/29 07:03:53;;;;;;;14.18;9.53;;;;;;;11.01;100.00;99412.65;1731438;82;21101;-66
2022/09/29 07:06:19;;;;;;;12.18;9.15;;;;;;;11.07;100.00;99414.98;1731792;82;21027;-67
2022/09/29 07:08:54;;;;;;;12.33;8.63;;;;;;;11.16;100.00;99411.48;1731613;82;21094;-67
2022/09/29 07:11:22;;;;;;;15.88;9.38;;;;;;;11.23;100.00;99424.29;1731636;82;21159;-67
2022/09/29 07:13:50;;;;;;;12.30;9.05;;;;;;;11.32;100.00;99421.66;1731564;82;21172;-67
2022/09/29 07:16:17;;;;;;;12.70;8.88;;;;;;;11.45;100.00;99417.42;1731873;82;21050;-67
2022/09/29 07:18:45;;;;;;;16.27;10.25;;;;;;;11.63;100.00;99418.73;1731288;82;20999;-65
2022/09/29 07:21:17;;;;;;;15.68;9.18;;;;;;;11.89;100.00;99423.52;1731303;82;21058;-67
2022/09/29 07:23:45;;;;;;;14.83;8.63;;;;;;;12.24;100.00;99416.78;1731784;82;21015;-67
2022/09/29 07:26:15;;;;;;;14.60;8.28;;;;;;;12.82;100.00;99419.72;1731497;82;21125;-67
2022/09/29 07:28:41;;;;;;;12.00;7.80;;;;;;;13.45;100.00;99422.17;1731454;82;21535;-68
2022/09/29 07:31:11;;;;;;;14.95;8.15;;;;;;;13.92;100.00;99429.02;1731593;82;21187;-66
2022/09/29 07:33:40;;;;;;;10.45;7.12;;;;;;;14.40;100.00;99435.28;1731486;82;21534;-67
2022/09/29 07:36:07;;;;;;;9.38;6.70;;;;;;;14.94;100.00;99427.87;1731435;82;21575;-67
2022/09/29 07:38:36;;;;;;;7.62;5.80;;;;;;;15.63;100.00;99423.20;1731542;82;21228;-66
2022/09/29 07:41:09;;;;;;;8.73;5.72;;;;;;;16.44;100.00;99420.11;1731337;82;21141;-67
2022/09/29 07:43:36;;;;;;;16.55;6.30;;;;;;;17.09;100.00;99416.70;1734342;82;21066;-67
2022/09/29 07:46:03;;;;;;;10.82;5.40;;;;;;;17.73;100.00;99411.77;1750492;82;21438;-67
2022/09/29 07:48:33;;;;;;;9.98;4.67;;;;;;;18.29;96.75;99410.95;1750345;82;21133;-69
2022/09/29 07:51:03;;;;;;;9.20;4.83;;;;;;;18.76;98.39;99404.88;1750543;82;21050;-68
2022/09/29 07:53:31;;;;;;;5.87;4.33;;;;;;;19.48;93.77;99412.19;1750310;82;21078;-67
2022/09/29 07:56:09;;;;;;;7.97;4.08;;;;;;;20.02;69.87;99416.10;1750515;82;21044;-68
2022/09/29 07:58:37;;;;;;;14.73;4.62;;;;;;;20.39;70.41;99403.48;1750655;82;21085;-67
2022/09/29 08:01:09;;;;;;;10.23;3.95;;;;;;;20.85;67.85;99395.34;1750504;82;21569;-70
2022/09/29 08:03:37;;;;;;;15.75;4.50;;;;;;;21.04;63.92;99398.00;1750677;82;21233;-67
2022/09/29 08:06:05;;;;;;;8.50;3.50;;;;;;;20.85;62.71;99395.34;1750285;82;21575;-66
2022/09/29 08:08:37;;;;;;;8.45;3.85;;;;;;;20.38;62.16;99395.92;1750413;82;21622;-67
2022/09/29 08:11:08;;;;;;;8.20;3.58;;;;;;;19.91;64.56;99386.30;1750405;82;21052;-66
2022/09/29 08:13:36;;;;;;;8.00;3.20;;;;;;;19.74;64.35;99395.80;1750440;81;21654;-68
2022/09/29 08:16:06;;;;;;;4.15;3.02;;;;;;;19.64;64.95;99398.86;1750468;82;21510;-68
2022/09/29 08:18:34;;;;;;;7.65;3.10;;;;;;;19.65;64.78;99393.39;1750335;82;21031;-66
2022/09/29 08:21:01;;;;;;;5.83;3.20;;;;;;;19.78;65.64;99393.19;1750270;82;21063;-69
2022/09/29 08:23:27;;;;;;;4.53;2.22;;;;;;;19.97;63.45;99389.78;1744232;82;21104;-69
2022/09/29 08:25:59;;;;;;;5.72;2.35;;;;;;;19.97;62.88;99400.47;1742737;82;21015;-67
2022/09/29 08:28:26;;;;;;;4.40;1.98;;;;;;;19.84;61.94;99402.52;1742803;82;21211;-67
2022/09/29 08:30:54;;;;;;;2.83;2.00;;;;;;;19.79;60.76;99402.91;1741516;82;21098;-67
2022/09/29 08:33:21;;;;;;;6.78;2.25;;;;;;;19.76;58.33;99401.86;1742730;82;21576;-68
2022/09/29 08:35:56;;;;;;;6.60;2.08;;;;;;;19.73;58.41;99410.11;1743039;82;21052;-68
2022/09/29 08:38:24;;;;;;;4.70;2.00;;;;;;;19.74;58.56;99410.48;1742459;82;21543;-68
2022/09/29 08:40:51;;;;;;;4.22;1.90;;;;;;;19.80;58.25;99405.93;1742513;82;21197;-69
2022/09/29 08:43:39;;;;;;;2.02;1.67;;;;;;;20.19;57.20;99411.92;1742135;82;21060;-68
2022/09/29 08:46:30;;;;;;;8.35;1.80;;;;;;;20.46;55.44;99410.80;1712734;83;21089;-68
2022/09/29 08:48:57;;;;;;;4.20;1.70;;;;;;;20.46;55.67;99407.30;1712542;83;21770;-67
2022/09/29 08:51:33;;;;;;;2.65;1.60;;;;;;;20.36;55.19;99405.07;1713157;83;21541;-67
2022/09/29 08:54:04;;;;;;;3.72;2.10;;;;;;;20.37;54.99;99406.78;1712715;83;21228;-68
2022/09/29 08:56:32;;;;;;;3.75;1.70;;;;;;;20.35;54.45;99392.70;1712759;83;21002;-68
2022/09/29 08:58:59;;;;;;;3.87;2.00;;;;;;;20.24;54.80;99401.67;1712863;83;21029;-69
2022/09/29 09:01:39;;;;;;;6.50;2.45;;;;;;;20.36;54.86;99390.36;1712865;83;21062;-67
2022/09/29 09:04:24;;;;;;;3.62;2.15;;;;;;;20.70;53.05;99387.70;1712690;83;21112;-69
2022/09/29 09:07:10;;;;;;;3.60;2.30;;;;;;;21.24;50.61;99389.97;1712916;83;22185;-68
2022/09/29 09:10:01;;;;;;;2.87;1.80;;;;;;;21.68;51.06;99386.30;1713093;83;21058;-67
2022/09/29 09:12:51;;;;;;;3.62;2.30;;;;;;;22.22;47.63;99386.00;1712773;83;21542;-68
2022/09/29 09:15:53;;;;;;;7.75;2.10;;;;;;;22.44;46.16;99371.34;1712294;83;21513;-69
2022/09/29 09:19:13;;;;;;;3.85;2.10;;;;;;;22.76;46.31;99372.67;1712876;83;21557;-68
2022/09/29 09:21:46;;;;;;;3.58;2.15;;;;;;;23.17;46.08;99369.87;1712892;83;21698;-68
2022/09/29 09:24:17;;;;;;;4.47;1.95;;;;;;;23.48;44.03;99367.22;1708066;82;21529;-71
2022/09/29 09:26:46;;;;;;;3.72;1.85;;;;;;;23.22;43.11;99367.55;1722453;83;21033;-69
2022/09/29 09:29:37;;;;;;;2.70;1.70;;;;;;;22.96;44.27;99363.94;1722524;83;21633;-69
2022/09/29 09:32:15;;;;;;;2.47;2.08;;;;;;;22.96;43.63;99366.14;1723102;83;21097;-69
2022/09/29 09:37:19;;;;;;;2.72;1.82;;;;;;;22.54;45.26;99368.58;1796218;79;22752;-68
2022/09/29 09:40:01;;;;;;;14.68;3.20;;;;;;;22.28;45.14;99363.95;1756398;81;21081;-69
2022/09/29 09:42:32;;;;;;;17.20;3.85;;;;;;;22.28;46.58;99356.42;1739278;81;21147;-66
2022/09/29 09:45:08;;;;;;;5.25;2.15;;;;;;;22.48;46.71;99358.48;1756152;81;21054;-69
2022/09/29 09:47:41;;;;;;;8.03;2.22;;;;;;;22.53;45.36;99364.23;1756499;81;21039;-68
2022/09/29 09:50:12;;;;;;;7.28;2.70;;;;;;;22.43;45.21;99363.44;1736911;81;21059;-67
2022/09/29 09:52:49;;;;;;;5.30;2.30;;;;;;;22.09;45.18;99358.69;1756386;81;21054;-68
2022/09/29 09:55:23;;;;;;;7.75;2.52;;;;;;;21.58;44.37;99364.40;1756271;81;22240;-68
2022/09/29 09:58:28;;;;;;;6.92;3.00;;;;;;;21.05;45.68;99367.58;1756359;81;21042;-68
2022/09/29 10:00:58;;;;;;;6.47;3.17;;;;;;;20.71;47.92;99368.00;1756379;81;21084;-68
2022/09/29 10:03:27;;;;;;;4.35;3.05;;;;;;;20.68;48.18;99362.08;1756890;81;24839;-68
2022/09/29 10:05:54;;;;;;;3.22;2.55;;;;;;;20.44;47.03;99369.14;1756261;81;21043;-68
2022/09/29 10:08:38;;;;;;;7.12;3.10;;;;;;;20.06;48.80;99364.91;1756499;81;21094;-69
2022/09/29 10:11:00;;;;;;;5.00;2.37;;;;;;;19.82;50.52;99371.91;1755704;81;21073;-67
2022/09/29 10:13:29;;;;;;;4.42;2.45;;;;;;;19.78;51.35;99367.81;1737314;81;21032;-68
2022/09/29 10:16:20;;;;;;;2.95;2.17;;;;;;;19.83;51.04;99374.95;1756028;81;21554;-68
2022/09/29 10:18:51;;;;;;;5.10;1.80;;;;;;;19.80;50.46;99369.02;1740639;81;21016;-68
2022/09/29 10:21:40;;;;;;;6.55;2.58;;;;;;;19.56;49.80;99366.64;1756467;81;21226;-69
2022/09/29 10:24:32;;;;;;;10.72;2.55;;;;;;;19.49;50.97;99364.49;1755573;81;21035;-68
2022/09/29 10:27:00;;;;;;;4.10;1.90;;;;;;;19.45;49.27;99372.91;1749175;81;21042;-70
2022/09/29 10:29:40;;;;;;;5.37;1.85;;;;;;;19.47;49.25;99375.80;1726249;83;21137;-67
2022/09/29 10:32:15;;;;;;;2.00;1.35;;;;;;;19.60;48.11;99375.59;1726304;82;21094;-67
2022/09/29 10:34:48;;;;;;;6.05;1.85;;;;;;;19.86;48.00;99382.70;1726486;83;21225;-68
2022/09/29 10:37:34;;;;;;;4.12;2.15;;;;;;;20.11;48.56;99376.03;1714036;82;21027;-69
2022/09/29 10:40:13;;;;;;;4.70;1.60;;;;;;;20.41;49.38;99371.60;1713617;83;21172;-67
2022/09/29 10:42:44;;;;;;;5.67;1.77;;;;;;;21.10;45.25;99369.83;1710973;82;21639;-68
2022/09/29 10:45:29;;;;;;;9.00;1.67;;;;;;;21.74;44.78;99368.27;1714023;82;21050;-68
2022/09/29 10:48:12;;;;;;;5.20;1.60;;;;;;;22.35;44.27;99367.72;1712982;83;21906;-67
2022/09/29 10:50:55;;;;;;;3.65;1.47;;;;;;;23.01;39.57;99360.34;1713296;83;21062;-69
2022/09/29 10:53:30;;;;;;;3.25;1.10;;;;;;;23.30;39.33;99361.37;1713029;82;21498;-68
2022/09/29 10:55:57;;;;;;;1.90;1.20;;;;;;;23.63;40.28;99361.10;1678672;85;21541;-68
2022/09/29 10:58:33;;;;;;;3.12;1.50;;;;;;;23.87;38.47;99356.88;1678686;85;21569;-67
2022/09/29 11:01:15;;;;;;;2.17;1.32;;;;;;;24.12;37.03;99367.75;1712907;83;21303;-69
2022/09/29 11:04:00;;;;;;;1.85;1.20;;;;;;;23.80;35.53;99355.84;1678399;85;21052;-70
2022/09/29 11:06:27;;;;;;;4.92;1.22;;;;;;;23.50;34.60;99344.56;1713011;82;21128;-68
2022/09/29 11:09:14;;;;;;;2.52;1.20;;;;;;;23.22;35.42;99348.75;1678662;85;21534;-68
2022/09/29 11:11:53;;;;;;;1.15;1.05;;;;;;;23.08;36.01;99346.63;1713290;83;21093;-68
2022/09/29 11:14:40;;;;;;;4.08;1.50;;;;;;;22.72;35.78;99346.63;1678693;85;21258;-67
2022/09/29 11:17:26;;;;;;;2.55;1.50;;;;;;;22.30;36.64;99349.91;1678520;85;21069;-68
2022/09/29 11:19:56;;;;;;;4.45;1.42;;;;;;;21.94;36.34;99344.41;1678622;85;21053;-70
2022/09/29 11:22:50;;;;;;;2.67;1.50;;;;;;;21.74;36.62;99349.05;1678943;85;28233;-69
2022/09/29 11:25:49;;;;;;;3.47;1.57;;;;;;;21.55;36.16;99347.25;1713441;83;21061;-68
2022/09/29 11:28:52;;;;;;;2.70;1.20;;;;;;;21.47;36.64;99349.84;1712877;82;21500;-67
2022/09/29 11:31:33;;;;;;;3.33;1.15;;;;;;;21.30;36.43;99349.20;1678495;85;21112;-68
2022/09/29 11:34:12;;;;;;;4.25;1.10;;;;;;;21.29;37.30;99344.85;1712990;83;21066;-67
2022/09/29 11:37:05;;;;;;;2.05;1.10;;;;;;;21.48;36.92;99346.16;1703434;82;21601;-68
2022/09/29 11:39:59;;;;;;;2.52;1.22;;;;;;;21.70;36.30;99348.14;1678160;85;21084;-68
2022/09/29 11:42:57;;;;;;;2.60;1.10;;;;;;;21.52;35.85;99358.27;1712896;82;21427;-68
2022/09/29 11:45:44;;;;;;;1.85;1.10;;;;;;;20.99;35.33;99369.48;1702645;83;21536;-69
2022/09/29 11:48:22;;;;;;;2.52;1.32;;;;;;;20.75;36.51;99363.20;1719576;83;21562;-67
2022/09/29 11:51:00;;;;;;;1.50;1.27;;;;;;;20.64;37.47;99365.54;1720554;83;21122;-67
2022/09/29 11:53:42;;;;;;;1.17;1.07;;;;;;;20.68;38.12;99365.62;1720602;83;21110;-69
2022/09/29 11:56:29;;;;;;;2.98;1.50;;;;;;;20.79;38.18;99369.13;1720048;83;21069;-69